Thayne, Wyoming
Current Conditions -  °F | °C
As of 5:55 PM on Wednesday 22 Oct 2014 (Local Time) from KAFO Reporting Station
Clear Clear  
Wind Chill: 52°   Ceiling: Unl
Heat Index: 52°   Visibility: 10mi
Dew Point: 25°   Wind: 5mph
Humidity: 35%   Direction: 240°WSW
Pressure: 30.18"   Gusts: NA
Location:  42.92°N, 111°W
Report Text: KAFO 222355Z AUTO 24004KT 10SM CLR 11/M04 A3018 RMK AO2
Loading
Personal Weather Stations






























Interactive Weather Map
Tropical Storm Tracking
New forecast layout! Learn more

10-Day Weather Forecast

Advertisements
Track Severe Weather on mobile